Time;durP1;ratioP1;P1;durP2;ratioP2;P2;SDS_P1;SDS_P2;PMS_P1;PMS_P2;Temp;Humidity;BMP_temperature;BMP_pressure;BME280_temperature;BME280_humidity;BME280_pressure;Samples;Min_cycle;Max_cycle;Signal;HPM_P1;HPM_P2
2023/05/04 00:30:33;;;;;;;16.37;5.00;;;;;;;41.50;35.40;101158.66;5156177;27;20519;-79
2023/05/04 00:32:59;;;;;;;19.03;7.30;;;;;;;41.64;35.27;101169.34;5135564;27;20946;-78
2023/05/04 00:35:25;;;;;;;29.73;13.70;;;;;;;41.81;34.63;101173.97;5129809;27;20427;-79
2023/05/04 00:37:51;;;;;;;23.67;9.10;;;;;;;41.93;34.80;101174.09;5149890;27;20497;-79
2023/05/04 00:40:17;;;;;;;17.20;8.40;;;;;;;42.04;34.70;101175.31;5147819;27;20517;-80
2023/05/04 00:42:43;;;;;;;17.10;7.57;;;;;;;42.16;34.78;101180.09;5149370;27;20450;-81
2023/05/04 00:45:09;;;;;;;20.63;6.80;;;;;;;42.17;34.76;101178.97;5149033;27;20449;-81
2023/05/04 00:47:35;;;;;;;18.43;5.07;;;;;;;42.22;34.16;101178.78;5149098;27;20177;-81
2023/05/04 00:50:02;;;;;;;14.00;5.33;;;;;;;42.16;34.59;101182.00;5148482;27;20410;-81
2023/05/04 00:52:29;;;;;;;13.63;5.33;;;;;;;42.24;34.36;101187.44;5149096;27;20434;-80
2023/05/04 00:54:55;;;;;;;17.60;5.53;;;;;;;42.34;33.95;101186.25;5149396;27;20418;-80
2023/05/04 00:57:21;;;;;;;20.07;5.40;;;;;;;42.36;34.05;101173.13;5135274;27;20415;-79
2023/05/04 00:59:47;;;;;;;12.57;5.33;;;;;;;42.32;33.68;101172.97;5128601;27;20824;-81
2023/05/04 01:02:13;;;;;;;20.83;5.60;;;;;;;42.33;33.76;101182.72;5128597;27;20425;-81
2023/05/04 01:04:39;;;;;;;20.23;8.17;;;;;;;42.34;34.01;101172.63;5135709;27;20207;-79
2023/05/04 01:07:11;;;;;;;15.70;4.23;;;;;;;42.35;33.99;101176.94;5148855;27;20446;-80
2023/05/04 01:09:48;;;;;;;13.00;4.97;;;;;;;42.30;34.13;101171.69;5133529;27;20419;-80
2023/05/04 01:12:38;;;;;;;15.67;5.23;;;;;;;42.31;34.07;101182.28;5131054;27;20449;-80
2023/05/04 01:15:05;;;;;;;19.43;5.10;;;;;;;42.29;34.18;101179.06;5136065;27;20419;-80
2023/05/04 01:17:31;;;;;;;11.77;3.97;;;;;;;42.30;34.16;101172.50;5128888;27;20407;-79
2023/05/04 01:19:57;;;;;;;18.33;6.17;;;;;;;42.25;34.35;101182.78;5117789;27;20466;-81
2023/05/04 01:22:23;;;;;;;18.10;6.83;;;;;;;42.27;34.07;101181.31;5127959;28;20499;-81
2023/05/04 01:24:49;;;;;;;15.97;5.30;;;;;;;42.26;34.03;101174.28;5128236;28;20427;-80
2023/05/04 01:27:26;;;;;;;19.40;5.80;;;;;;;42.20;34.31;101169.34;5127664;28;20419;-80
2023/05/04 01:30:15;;;;;;;15.60;6.20;;;;;;;42.28;34.21;101163.03;5123274;28;20468;-79
2023/05/04 01:32:44;;;;;;;13.43;4.87;;;;;;;42.22;34.42;101161.63;5114423;28;20507;-79
2023/05/04 01:35:13;;;;;;;18.13;5.07;;;;;;;42.28;34.07;101158.38;5114022;28;20511;-79
2023/05/04 01:37:39;;;;;;;13.60;5.90;;;;;;;42.22;34.25;101156.19;5114324;28;20427;-79
2023/05/04 01:40:06;;;;;;;18.33;6.17;;;;;;;42.27;34.42;101147.81;5113989;28;20420;-80
2023/05/04 01:42:31;;;;;;;15.77;4.60;;;;;;;42.18;34.37;101153.31;5114000;28;20420;-79
2023/05/04 01:44:57;;;;;;;12.37;3.83;;;;;;;42.17;33.77;101154.44;5115266;28;20462;-81
2023/05/04 01:47:23;;;;;;;12.30;4.17;;;;;;;42.22;33.90;101162.44;5114058;28;20473;-81
2023/05/04 01:49:49;;;;;;;17.20;4.83;;;;;;;42.21;33.89;101160.03;5115217;28;20808;-82
2023/05/04 01:52:15;;;;;;;15.40;4.47;;;;;;;42.25;34.01;101150.88;5114003;28;20665;-81
2023/05/04 01:54:41;;;;;;;14.17;5.30;;;;;;;42.18;34.09;101145.16;5113707;28;20432;-80
2023/05/04 01:57:07;;;;;;;16.70;5.70;;;;;;;42.23;34.36;101142.22;5113880;28;20473;-80
2023/05/04 01:59:33;;;;;;;22.27;6.53;;;;;;;42.21;34.31;101146.41;5113415;28;20626;-79
2023/05/04 02:01:59;;;;;;;31.60;8.73;;;;;;;42.20;33.97;101140.16;5113790;28;20436;-79
2023/05/04 02:04:25;;;;;;;18.13;5.63;;;;;;;42.20;33.55;101139.34;5113338;28;20826;-81
2023/05/04 02:06:51;;;;;;;14.97;6.83;;;;;;;42.17;33.93;101138.06;5103363;28;20674;-81
2023/05/04 02:09:17;;;;;;;16.77;6.53;;;;;;;42.18;34.09;101133.44;5112107;28;20966;-81
2023/05/04 02:11:43;;;;;;;18.80;7.33;;;;;;;42.15;33.92;101137.59;5113610;28;20431;-79
2023/05/04 02:14:09;;;;;;;13.27;4.93;;;;;;;42.14;34.24;101147.69;5113140;28;20974;-79
2023/05/04 02:16:35;;;;;;;17.97;5.50;;;;;;;42.14;34.29;101150.41;5113382;28;20416;-79
2023/05/04 02:19:01;;;;;;;16.57;5.50;;;;;;;42.21;34.20;101152.66;5114272;28;20470;-80
2023/05/04 02:21:28;;;;;;;24.53;7.17;;;;;;;42.23;34.24;101155.84;5113416;28;20427;-80
2023/05/04 02:23:54;;;;;;;18.53;6.87;;;;;;;42.23;34.24;101160.50;5113204;28;20493;-80
2023/05/04 02:26:20;;;;;;;16.03;6.37;;;;;;;42.17;34.37;101154.44;5113361;28;20431;-80
2023/05/04 02:28:46;;;;;;;17.90;6.60;;;;;;;42.22;34.15;101154.25;5112675;28;20467;-79
2023/05/04 02:31:12;;;;;;;19.77;5.07;;;;;;;42.21;34.66;101155.38;5113085;28;20452;-79
2023/05/04 02:33:38;;;;;;;15.93;4.40;;;;;;;42.21;33.86;101151.84;5112777;28;20419;-80
2023/05/04 02:36:04;;;;;;;13.03;4.73;;;;;;;42.21;33.89;101143.69;5113095;28;20427;-79
2023/05/04 02:38:30;;;;;;;14.20;5.50;;;;;;;42.17;33.76;101140.00;5112627;28;20456;-80
2023/05/04 02:40:57;;;;;;;13.93;6.60;;;;;;;42.18;33.65;101147.06;5101101;28;20436;-81
2023/05/04 02:43:23;;;;;;;17.00;5.53;;;;;;;42.15;33.56;101140.31;5110193;28;20420;-81
2023/05/04 02:45:49;;;;;;;13.83;5.10;;;;;;;42.19;33.81;101138.56;5101249;28;20421;-79
2023/05/04 02:48:15;;;;;;;17.43;5.83;;;;;;;42.17;33.89;101135.34;5111330;28;20408;-80
2023/05/04 02:50:41;;;;;;;22.77;5.80;;;;;;;42.22;33.79;101137.88;5112674;28;20472;-80
2023/05/04 02:53:07;;;;;;;10.40;4.40;;;;;;;42.21;34.03;101135.50;5108056;28;20428;-80
2023/05/04 02:55:33;;;;;;;13.20;5.60;;;;;;;42.19;33.96;101130.38;5104391;28;20506;-80
2023/05/04 02:57:59;;;;;;;13.20;5.50;;;;;;;42.21;33.79;101128.13;5109652;28;20559;-80
2023/05/04 03:00:25;;;;;;;23.03;6.83;;;;;;;42.21;34.19;101135.50;5092737;28;20444;-80
2023/05/04 03:02:51;;;;;;;21.70;7.13;;;;;;;42.23;34.13;101128.56;5112096;28;20859;-80
2023/05/04 03:05:17;;;;;;;19.90;6.60;;;;;;;42.16;34.36;101128.31;5112558;28;20991;-80
2023/05/04 03:07:43;;;;;;;13.33;5.50;;;;;;;42.18;33.93;101115.16;5107338;28;20433;-80
2023/05/04 03:10:09;;;;;;;16.13;4.67;;;;;;;42.21;34.29;101117.22;5092667;28;20507;-81
2023/05/04 03:12:35;;;;;;;23.20;5.47;;;;;;;42.18;33.89;101115.16;5112466;28;20461;-80
2023/05/04 03:15:01;;;;;;;21.83;4.90;;;;;;;42.18;34.15;101114.38;5100809;28;20420;-79
2023/05/04 03:17:27;;;;;;;12.90;5.23;;;;;;;42.20;34.19;101112.09;5112029;28;20798;-80
2023/05/04 03:19:53;;;;;;;17.67;5.00;;;;;;;42.14;33.82;101103.28;5112301;28;20487;-80
2023/05/04 03:22:19;;;;;;;17.73;6.03;;;;;;;42.16;33.88;101103.78;5111849;28;20962;-80
2023/05/04 03:24:45;;;;;;;13.37;6.60;;;;;;;42.18;33.81;101103.47;5100546;28;20433;-80
2023/05/04 03:27:11;;;;;;;17.10;5.73;;;;;;;42.19;33.94;101105.84;5110838;28;20416;-80
2023/05/04 03:29:37;;;;;;;12.57;6.57;;;;;;;42.04;34.29;101101.72;5113363;28;20996;-80
2023/05/04 03:32:03;;;;;;;15.70;4.53;;;;;;;42.05;34.52;101099.78;5111673;28;20510;-79
2023/05/04 03:34:30;;;;;;;12.17;5.60;;;;;;;42.08;34.51;101108.13;5091827;28;20240;-79
2023/05/04 03:36:56;;;;;;;12.90;5.37;;;;;;;42.01;34.88;101107.03;5097404;28;20454;-80
2023/05/04 03:39:22;;;;;;;15.00;7.57;;;;;;;41.83;35.12;101114.50;5099668;28;20535;-80
2023/05/04 03:41:48;;;;;;;13.43;7.57;;;;;;;41.82;35.27;101116.44;5110409;28;21050;-80
2023/05/04 03:44:14;;;;;;;16.93;7.30;;;;;;;41.92;35.14;101114.44;5111870;28;20974;-80
2023/05/04 03:46:40;;;;;;;25.17;10.20;;;;;;;41.80;35.44;101121.38;5093071;28;20493;-79
2023/05/04 03:49:06;;;;;;;15.60;10.67;;;;;;;41.61;36.13;101124.47;5103616;28;20416;-80
2023/05/04 03:51:32;;;;;;;25.27;9.57;;;;;;;41.74;35.71;101130.03;5111546;28;20435;-81
2023/05/04 03:53:58;;;;;;;33.77;14.60;;;;;;;41.73;35.87;101125.72;5111394;28;20481;-81
2023/05/04 03:56:24;;;;;;;28.67;14.87;;;;;;;41.74;35.68;101125.44;5111256;28;20848;-80
2023/05/04 03:58:50;;;;;;;35.53;18.90;;;;;;;41.66;35.88;101128.97;5111237;28;20538;-79
2023/05/04 04:01:16;;;;;;;29.10;16.67;;;;;;;41.76;35.79;101136.81;5111152;28;20507;-81
2023/05/04 04:03:42;;;;;;;32.87;16.80;;;;;;;41.80;35.67;101136.94;5111342;28;20447;-81
2023/05/04 04:06:09;;;;;;;30.27;14.40;;;;;;;41.70;36.10;101134.56;5111520;28;20419;-81
2023/05/04 04:08:36;;;;;;;29.87;15.27;;;;;;;41.75;36.10;101142.59;5111560;28;20468;-81
2023/05/04 04:11:02;;;;;;;21.73;13.17;;;;;;;41.72;35.80;101144.00;5110951;28;20938;-81
2023/05/04 04:13:28;;;;;;;22.30;10.37;;;;;;;41.67;36.21;101138.72;5111518;28;20932;-80
2023/05/04 04:15:54;;;;;;;24.07;12.40;;;;;;;41.71;36.39;101128.00;5111091;28;20419;-81
2023/05/04 04:18:21;;;;;;;19.13;11.17;;;;;;;41.71;36.19;101134.22;5111388;28;20455;-80
2023/05/04 04:20:47;;;;;;;18.40;9.97;;;;;;;41.60;35.97;101139.22;5107483;28;20424;-80
2023/05/04 04:23:17;;;;;;;15.93;10.60;;;;;;;41.73;35.91;101142.06;5091888;28;20501;-80
2023/05/04 04:25:44;;;;;;;18.87;10.50;;;;;;;41.81;35.60;101146.75;5111116;28;20854;-80
2023/05/04 04:28:10;;;;;;;21.87;10.27;;;;;;;41.74;35.81;101147.25;5110776;28;20503;-80
2023/05/04 04:30:35;;;;;;;18.27;10.80;;;;;;;41.75;35.53;101146.13;5101441;28;20546;-79
2023/05/04 04:33:02;;;;;;;20.90;10.33;;;;;;;41.75;35.69;101148.03;5111750;28;20412;-79
2023/05/04 04:35:28;;;;;;;17.83;11.10;;;;;;;41.72;35.50;101145.94;5112446;28;20415;-81
2023/05/04 04:37:54;;;;;;;23.83;10.13;;;;;;;41.64;35.96;101149.50;5111208;28;20415;-81
2023/05/04 04:40:21;;;;;;;25.10;11.20;;;;;;;41.70;35.76;101148.19;5110895;28;20423;-81
2023/05/04 04:42:47;;;;;;;23.10;11.47;;;;;;;41.60;36.15;101146.59;5112612;28;20421;-81
2023/05/04 04:45:14;;;;;;;24.00;13.33;;;;;;;41.53;36.20;101154.47;5110917;28;20432;-80
2023/05/04 04:47:40;;;;;;;27.23;13.00;;;;;;;41.51;36.25;101154.00;5112508;28;20457;-80
2023/05/04 04:50:07;;;;;;;29.00;15.77;;;;;;;41.58;35.89;101146.13;5110921;28;20454;-81
2023/05/04 04:52:33;;;;;;;23.40;15.27;;;;;;;41.49;36.06;101139.91;5110855;28;20423;-81
2023/05/04 04:55:00;;;;;;;29.53;15.97;;;;;;;41.50;36.05;101147.78;5110957;28;20431;-81
2023/05/04 04:57:26;;;;;;;30.77;15.30;;;;;;;41.60;35.79;101150.13;5107891;28;20424;-79
2023/05/04 04:59:52;;;;;;;29.73;15.23;;;;;;;41.63;35.57;101143.25;5098003;28;20451;-79
2023/05/04 05:02:21;;;;;;;24.73;15.23;;;;;;;41.61;36.09;101153.66;5110270;28;20552;-81
2023/05/04 05:04:48;;;;;;;21.80;12.73;;;;;;;41.55;36.21;101152.22;5111151;28;20416;-81
2023/05/04 05:07:15;;;;;;;31.50;12.73;;;;;;;41.44;36.21;101151.00;5114615;28;20419;-81
2023/05/04 05:09:41;;;;;;;29.87;13.97;;;;;;;41.36;36.63;101155.31;5106809;28;20824;-81
2023/05/04 05:12:07;;;;;;;28.70;14.60;;;;;;;41.45;36.49;101149.88;5114499;28;20424;-80
2023/05/04 05:14:34;;;;;;;23.43;14.07;;;;;;;41.19;37.11;101161.56;5114809;28;20436;-80
2023/05/04 05:17:02;;;;;;;25.33;13.43;;;;;;;41.30;36.97;101159.28;5115774;28;20415;-81
2023/05/04 05:19:28;;;;;;;27.40;16.77;;;;;;;41.38;36.77;101165.91;5107699;28;20551;-81
2023/05/04 05:21:55;;;;;;;26.60;16.57;;;;;;;41.41;36.56;101168.75;5110774;28;20468;-81
2023/05/04 05:24:22;;;;;;;26.00;18.03;;;;;;;41.42;36.75;101172.28;5114516;28;20510;-81
2023/05/04 05:26:48;;;;;;;27.53;19.93;;;;;;;41.28;37.05;101167.00;5114160;28;20507;-79
2023/05/04 05:29:14;;;;;;;39.00;20.80;;;;;;;41.30;37.15;101168.25;5109915;28;20551;-80
2023/05/04 05:31:40;;;;;;;31.30;18.33;;;;;;;41.34;37.31;101166.53;5110017;28;20463;-79
2023/05/04 05:34:06;;;;;;;26.27;18.97;;;;;;;41.43;37.40;101171.16;5116066;28;21002;-80
2023/05/04 05:36:32;;;;;;;31.03;18.97;;;;;;;41.34;37.19;101166.53;5113832;28;20526;-81
2023/05/04 05:38:58;;;;;;;37.17;20.70;;;;;;;41.36;37.35;101170.84;5114135;28;20201;-81
2023/05/04 05:41:24;;;;;;;34.87;23.27;;;;;;;41.17;37.27;101174.69;5113809;28;20780;-81
2023/05/04 05:43:50;;;;;;;38.20;21.83;;;;;;;41.25;37.27;101184.78;5113998;28;20479;-81
2023/05/04 05:46:17;;;;;;;35.90;20.50;;;;;;;41.22;37.29;101185.41;5114041;28;20930;-81
2023/05/04 05:48:43;;;;;;;31.63;20.43;;;;;;;41.17;37.31;101192.94;5113850;28;20435;-81
2023/05/04 05:51:09;;;;;;;42.37;22.83;;;;;;;41.10;37.44;101198.84;5111723;28;20572;-81
2023/05/04 05:53:35;;;;;;;31.23;20.53;;;;;;;41.09;37.38;101200.00;5113933;28;20433;-81
2023/05/04 05:56:01;;;;;;;38.33;20.73;;;;;;;41.14;37.64;101207.19;5113603;28;20431;-80
2023/05/04 05:58:27;;;;;;;34.03;20.33;;;;;;;41.15;37.37;101203.34;5113460;28;20482;-80
2023/05/04 06:00:53;;;;;;;28.30;20.60;;;;;;;41.12;37.42;101203.97;5105273;28;20460;-79
2023/05/04 06:03:19;;;;;;;45.43;20.80;;;;;;;41.17;37.48;101212.78;5114144;28;20434;-80
2023/05/04 06:05:45;;;;;;;24.57;18.93;;;;;;;41.26;37.22;101216.31;5113713;28;20496;-80
2023/05/04 06:08:11;;;;;;;34.67;20.20;;;;;;;41.31;37.18;101215.34;5113500;28;20485;-80
2023/05/04 06:10:36;;;;;;;40.37;19.43;;;;;;;41.15;37.33;101217.75;5113387;28;20424;-79
2023/05/04 06:13:02;;;;;;;36.93;21.67;;;;;;;41.11;37.44;101218.72;5113368;28;20478;-80
2023/05/04 06:15:29;;;;;;;53.87;24.70;;;;;;;41.03;37.30;101225.75;5113319;28;20802;-79
2023/05/04 06:17:55;;;;;;;41.30;21.70;;;;;;;41.20;37.13;101227.69;5114881;28;20412;-80
2023/05/04 06:20:21;;;;;;;43.23;27.70;;;;;;;41.17;37.21;101234.56;5113304;28;20442;-79
2023/05/04 06:22:47;;;;;;;47.37;27.07;;;;;;;40.94;37.50;101230.38;5114884;28;20416;-79
2023/05/04 06:25:13;;;;;;;41.07;27.90;;;;;;;40.96;37.55;101230.88;5113158;28;20961;-80
2023/05/04 06:27:39;;;;;;;29.43;22.30;;;;;;;41.23;37.12;101227.03;5113070;28;20419;-80
2023/05/04 06:30:06;;;;;;;38.33;25.47;;;;;;;41.15;37.26;101233.28;5112917;28;20495;-79
2023/05/04 06:32:32;;;;;;;38.63;27.87;;;;;;;41.21;37.33;101235.53;5102432;28;20967;-79
2023/05/04 06:34:58;;;;;;;42.47;24.90;;;;;;;41.37;36.79;101240.50;5110256;28;20434;-79
2023/05/04 06:37:25;;;;;;;36.53;21.90;;;;;;;41.32;36.97;101236.00;5109981;28;20412;-81
2023/05/04 06:39:51;;;;;;;35.83;20.70;;;;;;;41.42;36.98;101240.34;5112810;28;20456;-81
2023/05/04 06:42:17;;;;;;;32.63;21.87;;;;;;;41.21;37.05;101240.19;5113036;28;20527;-81
2023/05/04 06:44:43;;;;;;;32.30;21.97;;;;;;;41.32;37.29;101242.28;5112857;28;20419;-79
2023/05/04 06:47:09;;;;;;;27.03;21.87;;;;;;;41.42;36.92;101245.78;5112968;28;20446;-79
2023/05/04 06:49:35;;;;;;;38.30;24.80;;;;;;;41.33;36.78;101252.06;5107542;28;20444;-80
2023/05/04 06:52:01;;;;;;;29.70;22.60;;;;;;;41.28;37.14;101244.00;5112943;28;20427;-81
2023/05/04 06:54:27;;;;;;;47.97;25.93;;;;;;;41.42;36.98;101249.31;5112594;28;20419;-81
2023/05/04 06:56:54;;;;;;;41.70;24.17;;;;;;;41.50;36.66;101258.63;5112645;28;21123;-81
2023/05/04 06:59:20;;;;;;;42.43;21.97;;;;;;;41.29;37.16;101264.66;5112216;28;20466;-80
2023/05/04 07:01:46;;;;;;;42.77;23.50;;;;;;;41.43;36.47;101269.97;5112759;28;20427;-80
2023/05/04 07:04:15;;;;;;;30.43;21.20;;;;;;;41.32;37.21;101274.13;5112327;28;20967;-79
2023/05/04 07:06:44;;;;;;;35.83;20.90;;;;;;;41.40;37.09;101278.00;5112615;28;20476;-79
2023/05/04 07:09:10;;;;;;;80.07;48.10;;;;;;;41.61;37.04;101281.66;5112213;28;20966;-79
2023/05/04 07:11:36;;;;;;;68.37;46.23;;;;;;;41.67;36.55;101290.47;5112577;28;20460;-80
2023/05/04 07:14:01;;;;;;;77.17;49.30;;;;;;;41.76;36.01;101288.56;5097756;28;20523;-80
2023/05/04 07:16:27;;;;;;;119.47;75.77;;;;;;;41.61;36.84;101285.19;5112074;28;20458;-79
2023/05/04 07:18:53;;;;;;;65.63;43.87;;;;;;;41.66;36.88;101292.38;5111801;28;20452;-79
2023/05/04 07:21:20;;;;;;;76.70;47.70;;;;;;;41.74;36.75;101299.81;5111885;28;20444;-80
2023/05/04 07:23:46;;;;;;;66.27;45.37;;;;;;;41.77;36.69;101298.34;5111358;28;20480;-80
2023/05/04 07:26:11;;;;;;;44.13;31.97;;;;;;;41.83;36.89;101297.06;5106697;28;20507;-80
2023/05/04 07:28:37;;;;;;;42.00;28.07;;;;;;;41.73;37.06;101300.88;5112212;28;20581;-81
2023/05/04 07:31:04;;;;;;;41.33;28.40;;;;;;;41.76;36.87;101304.91;5111945;28;20458;-81
2023/05/04 07:33:29;;;;;;;39.17;24.20;;;;;;;41.95;36.76;101310.00;5111642;28;20404;-79
2023/05/04 07:35:57;;;;;;;43.80;19.63;;;;;;;41.94;36.58;101308.41;5111465;28;20423;-79
2023/05/04 07:38:25;;;;;;;20.30;13.10;;;;;;;42.02;36.29;101308.38;5110822;28;20463;-84
2023/05/04 07:40:53;;;;;;;22.63;13.00;;;;;;;42.07;36.23;101312.88;5102335;28;20423;-80
2023/05/04 07:43:19;;;;;;;16.33;10.37;;;;;;;42.09;36.01;101313.34;5111095;28;20420;-82
2023/05/04 07:45:45;;;;;;;21.70;10.30;;;;;;;42.16;35.59;101310.94;5111715;28;20498;-81
2023/05/04 07:48:11;;;;;;;20.50;9.10;;;;;;;42.16;35.49;101315.56;5110316;28;20511;-85
2023/05/04 07:50:38;;;;;;;22.40;9.10;;;;;;;42.17;36.03;101315.25;5112092;28;20791;-82
2023/05/04 07:53:04;;;;;;;17.57;8.57;;;;;;;42.13;35.68;101312.38;5110296;28;20426;-77
2023/05/04 07:55:30;;;;;;;26.43;8.83;;;;;;;42.16;36.00;101313.66;5112984;28;20415;-80
2023/05/04 07:57:56;;;;;;;21.07;12.00;;;;;;;42.25;35.62;101316.38;5111104;28;20472;-80
2023/05/04 08:00:22;;;;;;;14.43;7.93;;;;;;;42.26;36.06;101318.78;5111593;28;20421;-80
2023/05/04 08:02:48;;;;;;;34.43;9.23;;;;;;;42.09;36.07;101316.88;5111407;28;20412;-82
2023/05/04 08:05:14;;;;;;;19.03;10.60;;;;;;;42.10;36.19;101323.13;5111526;28;20442;-81
2023/05/04 08:07:40;;;;;;;14.70;9.20;;;;;;;42.11;35.88;101313.81;5112545;28;20438;-82
2023/05/04 08:10:07;;;;;;;23.10;9.60;;;;;;;42.22;36.14;101312.38;5110876;28;20416;-78
2023/05/04 08:12:33;;;;;;;15.73;9.37;;;;;;;42.16;35.94;101304.66;5105878;28;20420;-79
2023/05/04 08:14:59;;;;;;;15.03;8.47;;;;;;;42.28;36.18;101311.06;5112632;28;20469;-78
2023/05/04 08:17:25;;;;;;;19.97;9.23;;;;;;;42.28;36.10;101316.50;5110807;28;20441;-78
2023/05/04 08:19:51;;;;;;;24.00;10.57;;;;;;;42.23;35.76;101315.88;5110793;28;20877;-82
2023/05/04 08:22:18;;;;;;;20.23;8.47;;;;;;;42.27;36.14;101311.41;5109580;28;20424;-83
2023/05/04 08:24:46;;;;;;;25.00;9.43;;;;;;;42.36;36.28;101317.63;5097704;28;20434;-78
2023/05/04 08:27:15;;;;;;;25.43;10.17;;;;;;;42.35;35.89;101327.72;5104679;28;20427;-79
2023/05/04 08:29:41;;;;;;;19.80;9.17;;;;;;;42.28;36.58;101326.63;5110916;28;20543;-83
2023/05/04 08:32:07;;;;;;;26.90;8.70;;;;;;;42.35;36.02;101324.97;5110023;28;20507;-83
2023/05/04 08:34:33;;;;;;;14.50;8.20;;;;;;;42.39;35.91;101331.41;5110547;28;20451;-79
2023/05/04 08:37:01;;;;;;;17.07;6.63;;;;;;;42.42;36.06;101331.84;5097584;28;20518;-76
2023/05/04 08:39:27;;;;;;;15.27;5.93;;;;;;;42.40;36.10;101334.91;5103589;28;20452;-76
2023/05/04 08:41:53;;;;;;;15.17;8.00;;;;;;;42.40;35.80;101327.53;5115908;28;20984;-76
2023/05/04 08:44:21;;;;;;;22.47;8.03;;;;;;;42.48;35.76;101333.28;5112526;28;20479;-76
2023/05/04 08:46:53;;;;;;;16.80;7.73;;;;;;;42.47;35.98;101331.69;5108867;28;20408;-81
2023/05/04 08:49:20;;;;;;;22.10;10.80;;;;;;;42.52;35.82;101337.75;5099731;28;20946;-82
2023/05/04 08:51:50;;;;;;;17.80;8.43;;;;;;;42.55;35.63;101350.75;5112323;28;20417;-77
2023/05/04 08:54:17;;;;;;;19.30;8.87;;;;;;;42.54;36.27;101345.63;5114192;28;20821;-81
2023/05/04 08:56:47;;;;;;;21.53;9.27;;;;;;;42.55;36.15;101349.97;5114430;28;20443;-76
2023/05/04 08:59:21;;;;;;;17.03;9.53;;;;;;;42.61;36.10;101360.41;5042003;22;20992;-78
2023/05/04 09:01:53;;;;;;;13.57;10.10;;;;;;;42.68;35.93;101361.81;5009107;28;20491;-80
2023/05/04 09:04:19;;;;;;;14.77;6.33;;;;;;;42.65;35.34;101363.25;4998747;28;20417;-80
2023/05/04 09:06:49;;;;;;;16.47;8.40;;;;;;;42.72;35.95;101365.47;5009185;28;20419;-79
2023/05/04 09:09:15;;;;;;;15.87;6.40;;;;;;;42.76;35.18;101375.41;4977282;28;20835;-80
2023/05/04 09:11:42;;;;;;;21.20;6.60;;;;;;;42.81;34.34;101379.88;5005085;28;20424;-81
2023/05/04 09:14:08;;;;;;;11.07;3.90;;;;;;;42.74;33.78;101376.88;5005208;28;20506;-79
2023/05/04 09:16:35;;;;;;;14.20;4.80;;;;;;;42.62;33.59;101374.84;5012092;28;20523;-78
2023/05/04 09:19:03;;;;;;;16.63;5.00;;;;;;;42.65;34.00;101376.88;5003922;28;20499;-78
2023/05/04 09:21:30;;;;;;;17.50;5.00;;;;;;;42.51;33.90;101377.06;5028496;28;20458;-78
2023/05/04 09:23:57;;;;;;;23.27;5.87;;;;;;;42.41;34.14;101377.41;5018011;28;20432;-77
2023/05/04 09:26:30;;;;;;;11.67;5.20;;;;;;;42.41;34.25;101374.69;5013362;28;20535;-78
2023/05/04 09:29:08;;;;;;;18.30;4.37;;;;;;;42.40;33.81;101371.16;5000126;28;20431;-78
2023/05/04 09:31:51;;;;;;;12.40;4.27;;;;;;;42.40;33.81;101368.44;5028535;28;20456;-78
2023/05/04 09:34:21;;;;;;;14.23;5.30;;;;;;;42.42;33.75;101383.66;4994856;28;20955;-79
2023/05/04 09:37:00;;;;;;;17.83;5.27;;;;;;;42.53;33.63;101374.81;5017003;28;20532;-78
2023/05/04 09:39:27;;;;;;;10.00;3.63;;;;;;;42.67;33.90;101371.94;4996687;28;20567;-78
2023/05/04 09:41:54;;;;;;;10.90;4.30;;;;;;;42.69;33.76;101377.84;5013982;28;20480;-78
2023/05/04 09:44:21;;;;;;;17.93;6.50;;;;;;;42.60;34.00;101383.34;5013255;28;20458;-78
2023/05/04 09:46:55;;;;;;;20.00;5.70;;;;;;;42.62;33.79;101370.19;4993279;28;20457;-77
2023/05/04 09:49:35;;;;;;;12.77;4.03;;;;;;;42.61;33.90;101373.22;4995531;28;20427;-77
2023/05/04 09:52:02;;;;;;;24.80;8.77;;;;;;;42.61;33.55;101373.22;5017737;28;21009;-77
2023/05/04 09:54:40;;;;;;;11.30;4.33;;;;;;;42.71;33.39;101364.66;5019357;28;20464;-77
2023/05/04 09:57:11;;;;;;;14.30;5.47;;;;;;;42.72;33.63;101357.28;5004328;28;20455;-76
2023/05/04 09:59:38;;;;;;;17.23;5.17;;;;;;;42.94;33.04;101362.47;5016512;28;20477;-75
2023/05/04 10:02:06;;;;;;;11.43;4.47;;;;;;;42.75;32.94;101362.09;5020413;28;20524;-76
2023/05/04 10:04:38;;;;;;;13.53;4.20;;;;;;;42.80;33.07;101376.34;5016474;28;20425;-76
2023/05/04 10:07:04;;;;;;;14.27;5.00;;;;;;;43.00;32.93;101366.66;5021172;28;20443;-78
2023/05/04 10:09:32;;;;;;;12.30;4.23;;;;;;;42.91;33.30;101374.06;5016231;28;20781;-78
2023/05/04 10:12:05;;;;;;;17.30;4.53;;;;;;;42.62;33.41;101380.28;5021232;28;20444;-77
2023/05/04 10:14:35;;;;;;;11.30;5.10;;;;;;;42.74;33.43;101380.41;5003461;28;20433;-76
2023/05/04 10:17:22;;;;;;;14.33;4.37;;;;;;;42.75;33.23;101382.00;5017443;28;20813;-76
2023/05/04 10:20:07;;;;;;;9.27;4.90;;;;;;;42.70;33.39;101384.09;4985572;28;20504;-76
2023/05/04 10:22:54;;;;;;;13.73;5.83;;;;;;;42.56;34.10;101382.38;5002780;28;20441;-77
2023/05/04 10:26:01;;;;;;;17.70;3.70;;;;;;;42.84;33.42;101376.47;5012068;28;20421;-76
2023/05/04 10:28:26;;;;;;;14.97;5.47;;;;;;;42.79;33.18;101382.94;4980026;28;20421;-76
2023/05/04 10:30:59;;;;;;;19.60;5.33;;;;;;;42.69;32.72;101364.22;4993417;28;20420;-75
2023/05/04 10:33:36;;;;;;;11.70;3.93;;;;;;;42.61;33.38;101368.56;5009305;28;20174;-82
2023/05/04 10:36:02;;;;;;;12.33;4.53;;;;;;;42.78;33.67;101362.22;4988760;28;20451;-75
2023/05/04 10:38:35;;;;;;;13.13;4.27;;;;;;;42.68;33.40;101359.88;5007398;28;20465;-77
2023/05/04 10:41:21;;;;;;;21.67;5.60;;;;;;;42.82;33.21;101352.25;4989669;28;20458;-77
2023/05/04 10:43:49;;;;;;;13.33;3.67;;;;;;;42.81;33.30;101344.41;4997139;28;20457;-76
2023/05/04 10:46:22;;;;;;;11.00;3.50;;;;;;;42.89;32.99;101352.53;5004674;28;20449;-77
2023/05/04 10:48:50;;;;;;;13.87;4.60;;;;;;;42.77;32.81;101355.16;4994199;28;20827;-77
2023/05/04 10:51:21;;;;;;;14.30;3.63;;;;;;;42.77;33.26;101355.16;4993802;28;20588;-77
2023/05/04 10:53:48;;;;;;;12.80;4.40;;;;;;;43.10;32.46;101351.81;4999057;28;20429;-77
2023/05/04 10:56:24;;;;;;;15.87;5.73;;;;;;;43.12;33.11;101364.00;5015407;28;20467;-77
2023/05/04 10:58:51;;;;;;;9.97;4.30;;;;;;;43.20;32.68;101348.69;4992254;28;20567;-77
2023/05/04 11:01:19;;;;;;;17.13;5.10;;;;;;;43.17;33.13;101347.44;4999782;28;20945;-80
2023/05/04 11:03:46;;;;;;;20.20;5.50;;;;;;;43.35;32.51;101339.91;5019911;28;20945;-76
2023/05/04 11:06:23;;;;;;;14.93;5.47;;;;;;;43.28;32.92;101347.03;5010448;28;20445;-77
2023/05/04 11:09:01;;;;;;;19.33;7.53;;;;;;;43.35;32.60;101342.66;4994643;28;21002;-77
2023/05/04 11:11:27;;;;;;;14.93;5.20;;;;;;;43.44;32.16;101337.13;4990215;28;20436;-79
2023/05/04 11:13:53;;;;;;;15.80;5.30;;;;;;;43.43;32.64;101341.81;5017049;28;20444;-77
2023/05/04 11:16:24;;;;;;;11.53;5.50;;;;;;;43.36;32.72;101327.06;5008574;28;20798;-81
2023/05/04 11:18:50;;;;;;;10.73;4.03;;;;;;;43.47;31.94;101322.03;5013072;28;21026;-76
2023/05/04 11:21:24;;;;;;;15.10;5.90;;;;;;;43.44;31.64;101324.28;5003951;28;20424;-77
2023/05/04 11:23:58;;;;;;;10.20;4.43;;;;;;;43.18;32.09;101318.19;4996407;28;20500;-82
2023/05/04 11:26:25;;;;;;;10.73;3.53;;;;;;;43.00;32.56;101311.25;4995991;28;20479;-76
2023/05/04 11:28:51;;;;;;;14.20;3.73;;;;;;;43.09;32.22;101311.97;5022199;28;20871;-76
2023/05/04 11:31:19;;;;;;;15.30;5.43;;;;;;;43.18;32.54;101302.63;4991774;28;20828;-76
2023/05/04 11:33:48;;;;;;;14.03;5.93;;;;;;;43.26;32.42;101308.34;5011786;28;20435;-77
2023/05/04 11:36:15;;;;;;;14.07;5.00;;;;;;;43.40;32.22;101303.41;5011694;28;20512;-77
2023/05/04 11:38:42;;;;;;;18.70;6.60;;;;;;;43.47;32.37;101291.97;5000879;28;20998;-76
2023/05/04 11:41:09;;;;;;;12.63;6.43;;;;;;;43.36;32.16;101297.81;5011064;28;20425;-77
2023/05/04 11:43:37;;;;;;;15.93;4.73;;;;;;;43.45;32.10;101281.38;5010660;28;20952;-80
2023/05/04 11:46:06;;;;;;;14.20;4.77;;;;;;;43.31;32.19;101276.16;5014604;28;20437;-76